Time;durP1;ratioP1;P1;durP2;ratioP2;P2;SDS_P1;SDS_P2;PMS_P1;PMS_P2;Temp;Humidity;BMP_temperature;BMP_pressure;BME280_temperature;BME280_humidity;BME280_pressure;Samples;Min_cycle;Max_cycle;Signal;HPM_P1;HPM_P2
2022/05/11 00:00:12;;;;;;;1.17;0.55;;;16.50;40.80;;;;;;5062000;28;20071;-87
2022/05/11 00:02:39;;;;;;;1.63;0.90;;;16.50;40.80;;;;;;5047588;28;20082;-82
2022/05/11 00:05:10;;;;;;;2.38;0.80;;;16.40;40.90;;;;;;5046956;28;20083;-86
2022/05/11 00:07:36;;;;;;;2.08;0.65;;;16.50;41.00;;;;;;5064068;28;20029;-85
2022/05/11 00:10:11;;;;;;;1.75;0.57;;;16.40;40.90;;;;;;5048705;28;20074;-85
2022/05/11 00:12:45;;;;;;;0.77;0.65;;;16.50;40.80;;;;;;5046505;28;20025;-86
2022/05/11 00:15:14;;;;;;;3.60;1.20;;;16.40;40.80;;;;;;5048060;28;20048;-86
2022/05/11 00:17:40;;;;;;;1.80;0.60;;;16.40;40.80;;;;;;5049624;28;20087;-81
2022/05/11 00:20:06;;;;;;;0.93;0.68;;;16.40;40.90;;;;;;5049193;28;20581;-86
2022/05/11 00:22:34;;;;;;;1.63;0.50;;;16.40;40.80;;;;;;5047029;28;20391;-86
2022/05/11 00:25:00;;;;;;;2.75;0.93;;;16.40;40.80;;;;;;5062832;28;20025;-86
2022/05/11 00:27:26;;;;;;;0.63;0.63;;;16.30;40.70;;;;;;5046916;28;20036;-87
2022/05/11 00:29:52;;;;;;;3.58;0.68;;;16.30;40.60;;;;;;5027983;28;20498;-86
2022/05/11 00:32:18;;;;;;;1.10;0.52;;;16.30;40.70;;;;;;5041647;28;20037;-82
2022/05/11 00:34:44;;;;;;;0.70;0.60;;;16.30;40.70;;;;;;5046868;28;20037;-85
2022/05/11 00:37:11;;;;;;;1.23;0.70;;;16.40;40.90;;;;;;5047189;28;20048;-85
2022/05/11 00:39:37;;;;;;;1.20;0.70;;;16.40;40.80;;;;;;5054725;28;20041;-86
2022/05/11 00:42:04;;;;;;;2.28;0.73;;;16.30;40.80;;;;;;5027090;28;20037;-86
2022/05/11 00:44:31;;;;;;;1.40;0.60;;;16.30;40.70;;;;;;5045169;28;20032;-85
2022/05/11 00:47:03;;;;;;;1.48;0.60;;;16.30;40.70;;;;;;5044210;28;20041;-85
2022/05/11 00:49:48;;;;;;;1.95;0.85;;;16.20;40.60;;;;;;5047161;28;20090;-87
2022/05/11 00:52:50;;;;;;;1.10;0.70;;;16.30;40.60;;;;;;5062484;28;20048;-85
2022/05/11 00:55:28;;;;;;;2.13;0.70;;;16.30;40.70;;;;;;5044401;28;20515;-85
2022/05/11 00:58:15;;;;;;;1.45;0.68;;;16.30;40.80;;;;;;5046328;28;20033;-85
2022/05/11 01:00:45;;;;;;;2.63;0.70;;;16.30;40.80;;;;;;5046440;28;20033;-87
2022/05/11 01:03:16;;;;;;;0.93;0.70;;;16.30;40.70;;;;;;5046815;28;20134;-85
2022/05/11 01:05:44;;;;;;;1.52;0.50;;;16.20;40.70;;;;;;5045115;28;20041;-85
2022/05/11 01:08:12;;;;;;;1.00;0.60;;;16.20;40.90;;;;;;5036717;28;20099;-86
2022/05/11 01:10:39;;;;;;;1.35;0.80;;;16.20;40.90;;;;;;5045823;28;20035;-84
2022/05/11 01:13:08;;;;;;;2.38;0.70;;;16.20;40.80;;;;;;5041393;28;20072;-85
2022/05/11 01:15:34;;;;;;;1.58;0.60;;;16.20;40.80;;;;;;5046210;28;20029;-85
2022/05/11 01:18:06;;;;;;;1.55;0.50;;;16.20;40.80;;;;;;5060825;28;20052;-83
2022/05/11 01:20:35;;;;;;;1.80;0.70;;;16.30;40.80;;;;;;5047145;28;20040;-86
2022/05/11 01:23:17;;;;;;;0.90;0.60;;;16.20;40.80;;;;;;5043572;28;20086;-85
2022/05/11 01:25:44;;;;;;;2.35;0.80;;;16.20;40.70;;;;;;5046477;28;20531;-86
2022/05/11 01:28:13;;;;;;;3.63;0.80;;;16.20;40.80;;;;;;5045952;28;20480;-86
2022/05/11 01:30:50;;;;;;;3.83;0.90;;;16.20;40.80;;;;;;5046225;28;20151;-87
2022/05/11 01:33:22;;;;;;;1.05;0.65;;;16.10;40.90;;;;;;5045887;28;20134;-87
2022/05/11 01:36:11;;;;;;;3.40;1.00;;;16.20;40.90;;;;;;5045242;28;20063;-87
2022/05/11 01:38:46;;;;;;;0.82;0.70;;;16.10;40.90;;;;;;5061059;28;20037;-87
2022/05/11 01:41:23;;;;;;;2.78;0.85;;;16.10;41.60;;;;;;5044983;28;20132;-85
2022/05/11 01:43:51;;;;;;;0.70;0.60;;;16.10;41.10;;;;;;5061917;28;20033;-88
2022/05/11 01:46:18;;;;;;;0.80;0.50;;;16.10;41.00;;;;;;5047315;28;20024;-85
2022/05/11 01:48:44;;;;;;;1.10;0.75;;;16.10;41.10;;;;;;5046318;28;20045;-86
2022/05/11 01:51:13;;;;;;;0.95;0.60;;;16.10;41.10;;;;;;5045283;28;20063;-86
2022/05/11 01:53:39;;;;;;;0.57;0.50;;;16.10;41.00;;;;;;5045201;28;20029;-85
2022/05/11 01:56:06;;;;;;;1.48;0.70;;;16.10;41.60;;;;;;5051867;28;20388;-85
2022/05/11 01:58:32;;;;;;;3.03;0.60;;;16.00;40.80;;;;;;5053606;28;20039;-86
2022/05/11 02:00:59;;;;;;;1.60;0.77;;;16.10;40.80;;;;;;5044342;28;20075;-84
2022/05/11 02:03:25;;;;;;;1.17;0.65;;;16.10;40.80;;;;;;5044178;28;20033;-84
2022/05/11 02:08:40;;;;;;;2.75;0.75;;;16.10;40.90;;;;;;5041119;28;20033;-82
2022/05/11 02:11:07;;;;;;;2.15;0.80;;;15.90;40.70;;;;;;5045270;28;20033;-83
2022/05/11 02:13:33;;;;;;;1.15;0.60;;;16.00;41.00;;;;;;5043884;28;20056;-82
2022/05/11 02:15:59;;;;;;;2.63;0.80;;;16.00;41.30;;;;;;5047001;28;20025;-82
2022/05/11 02:18:25;;;;;;;0.75;0.60;;;16.00;41.50;;;;;;5049664;28;20029;-84
2022/05/11 02:20:51;;;;;;;4.55;0.70;;;16.10;41.30;;;;;;5044489;28;20574;-84
2022/05/11 02:23:19;;;;;;;1.60;0.90;;;16.10;41.30;;;;;;5044174;28;20291;-84
2022/05/11 02:25:47;;;;;;;1.83;0.75;;;16.00;41.20;;;;;;5050718;28;20029;-83
2022/05/11 02:28:14;;;;;;;0.82;0.40;;;16.00;41.40;;;;;;5043776;28;20024;-83
2022/05/11 02:30:42;;;;;;;1.40;0.65;;;16.00;41.40;;;;;;5044196;28;20047;-84
2022/05/11 02:33:08;;;;;;;0.70;0.47;;;16.00;41.20;;;;;;5044794;28;20076;-82
2022/05/11 02:35:35;;;;;;;1.58;0.98;;;16.00;41.10;;;;;;5048858;28;20033;-83
2022/05/11 02:38:06;;;;;;;2.38;0.80;;;15.90;41.10;;;;;;5015022;28;20052;-82
2022/05/11 02:40:35;;;;;;;1.67;0.82;;;16.00;41.20;;;;;;5049799;28;20391;-83
2022/05/11 02:43:02;;;;;;;1.08;0.63;;;16.00;41.10;;;;;;5049600;28;20098;-84
2022/05/11 02:45:31;;;;;;;1.05;0.88;;;16.00;41.10;;;;;;5048218;28;20029;-84
2022/05/11 02:47:58;;;;;;;0.88;0.70;;;16.00;41.10;;;;;;5048571;28;20424;-83
2022/05/11 02:50:33;;;;;;;4.13;1.02;;;16.00;41.10;;;;;;5048419;28;20082;-84
2022/05/11 02:53:02;;;;;;;1.95;0.80;;;16.00;41.10;;;;;;5049303;28;20037;-82
2022/05/11 02:55:29;;;;;;;1.38;0.88;;;16.00;41.10;;;;;;5048859;28;20033;-83
2022/05/11 02:57:55;;;;;;;1.90;1.00;;;16.00;41.10;;;;;;5064205;28;20033;-84
2022/05/11 03:00:21;;;;;;;3.25;0.80;;;16.10;41.30;;;;;;5048805;28;20033;-85
2022/05/11 03:02:47;;;;;;;4.15;1.20;;;16.00;41.20;;;;;;5032286;28;20037;-82
2022/05/11 03:05:15;;;;;;;1.27;0.82;;;16.10;41.20;;;;;;5047357;28;20040;-83
2022/05/11 03:07:41;;;;;;;2.22;0.73;;;16.10;41.10;;;;;;5048757;28;20396;-83
2022/05/11 03:10:08;;;;;;;1.83;0.90;;;16.10;41.20;;;;;;5048517;28;20497;-83
2022/05/11 03:12:34;;;;;;;1.20;0.68;;;16.10;41.30;;;;;;5048300;28;20033;-82
2022/05/11 03:15:02;;;;;;;1.58;0.82;;;16.10;41.20;;;;;;5047530;28;20132;-82
2022/05/11 03:17:28;;;;;;;2.15;0.75;;;16.20;41.20;;;;;;5048878;28;20035;-86
2022/05/11 03:19:55;;;;;;;1.10;0.80;;;16.10;41.40;;;;;;5047253;28;20110;-84
2022/05/11 03:22:21;;;;;;;2.30;0.70;;;16.20;41.40;;;;;;5049434;28;20040;-84
2022/05/11 03:24:47;;;;;;;2.60;0.90;;;16.20;41.40;;;;;;5047363;28;20021;-84
2022/05/11 03:27:13;;;;;;;1.55;0.80;;;16.20;41.30;;;;;;5047403;28;20033;-83
2022/05/11 03:29:39;;;;;;;2.28;0.70;;;16.20;41.20;;;;;;5048472;28;20044;-83
2022/05/11 03:34:49;;;;;;;2.47;0.80;;;16.20;41.30;;;;;;5055226;28;20476;-83
2022/05/11 03:37:18;;;;;;;3.05;0.77;;;16.30;41.50;;;;;;5048780;28;20040;-83
2022/05/11 03:39:44;;;;;;;0.65;0.50;;;16.20;41.50;;;;;;5048761;28;20103;-83
2022/05/11 03:42:13;;;;;;;2.25;0.73;;;16.30;41.50;;;;;;5046580;28;20037;-80
2022/05/11 03:44:39;;;;;;;3.15;0.70;;;16.30;41.40;;;;;;5046459;28;20430;-82
2022/05/11 03:47:05;;;;;;;3.67;1.00;;;16.30;41.40;;;;;;5046661;28;20033;-83
2022/05/11 03:49:31;;;;;;;3.30;0.95;;;16.30;41.40;;;;;;5048228;28;20536;-82
2022/05/11 03:51:57;;;;;;;1.77;0.80;;;16.30;41.40;;;;;;5063533;28;20072;-82
2022/05/11 03:54:24;;;;;;;1.27;0.70;;;16.30;41.40;;;;;;5029430;28;20045;-82
2022/05/11 03:56:50;;;;;;;2.55;0.82;;;16.40;41.30;;;;;;5048539;28;20538;-82
2022/05/11 03:59:16;;;;;;;1.10;0.70;;;16.30;41.10;;;;;;5030440;28;20048;-82
2022/05/11 04:01:42;;;;;;;4.88;1.00;;;16.30;41.00;;;;;;5047295;28;20128;-82
2022/05/11 04:04:08;;;;;;;3.05;0.68;;;16.30;41.10;;;;;;5046831;28;20041;-82
2022/05/11 04:06:35;;;;;;;2.15;1.00;;;16.30;40.90;;;;;;5046965;28;20068;-82
2022/05/11 04:09:01;;;;;;;5.10;0.88;;;16.30;40.80;;;;;;5047138;28;20476;-81
2022/05/11 04:11:28;;;;;;;2.05;0.70;;;16.30;41.00;;;;;;5046793;28;20033;-82
2022/05/11 04:13:55;;;;;;;2.47;0.93;;;16.40;41.10;;;;;;5046786;28;20063;-83
2022/05/11 04:16:22;;;;;;;3.13;0.80;;;16.40;41.10;;;;;;5030991;28;20376;-84
2022/05/11 04:18:48;;;;;;;2.22;1.23;;;16.40;41.10;;;;;;5044410;28;20505;-85
2022/05/11 04:21:14;;;;;;;2.03;0.90;;;16.40;41.00;;;;;;5027459;28;20045;-85
2022/05/11 04:23:40;;;;;;;3.63;0.95;;;16.40;41.10;;;;;;5027200;28;20037;-85
2022/05/11 04:26:07;;;;;;;2.90;1.10;;;16.50;40.80;;;;;;5026383;28;20040;-83
2022/05/11 04:28:33;;;;;;;1.75;0.80;;;16.50;40.90;;;;;;5045936;28;20075;-84
2022/05/11 04:31:05;;;;;;;2.30;1.02;;;16.50;41.10;;;;;;5047569;28;20076;-85
2022/05/11 04:33:31;;;;;;;2.47;1.00;;;16.40;41.10;;;;;;5047346;28;20087;-82
2022/05/11 04:35:57;;;;;;;1.15;0.90;;;16.50;41.00;;;;;;5061644;28;20057;-84
2022/05/11 04:38:23;;;;;;;2.40;0.90;;;16.50;41.00;;;;;;5046742;28;20033;-83
2022/05/11 04:40:50;;;;;;;3.67;1.05;;;16.50;41.00;;;;;;5009356;28;20053;-84
2022/05/11 04:43:19;;;;;;;5.28;1.30;;;16.50;41.10;;;;;;5060729;28;20051;-84
2022/05/11 04:45:46;;;;;;;4.93;1.30;;;16.60;41.00;;;;;;5045611;28;20036;-82
2022/05/11 04:48:14;;;;;;;2.72;1.00;;;16.60;40.80;;;;;;5046221;28;20044;-80
2022/05/11 04:50:43;;;;;;;4.00;1.17;;;16.60;40.90;;;;;;5062265;28;20077;-81
2022/05/11 04:53:11;;;;;;;6.50;1.30;;;16.70;41.00;;;;;;5061022;28;20094;-81
2022/05/11 04:55:37;;;;;;;5.85;1.40;;;16.70;40.90;;;;;;5046070;28;20129;-79
2022/05/11 04:58:04;;;;;;;5.05;1.45;;;16.70;41.10;;;;;;5043628;28;20579;-81
2022/05/11 05:00:31;;;;;;;6.93;1.70;;;16.80;41.50;;;;;;5045734;28;20035;-80
2022/05/11 05:02:57;;;;;;;6.15;1.85;;;16.80;41.10;;;;;;5046773;28;20037;-81
2022/05/11 05:05:23;;;;;;;5.35;1.95;;;16.80;41.20;;;;;;5045936;28;20029;-80
2022/05/11 05:07:50;;;;;;;5.28;2.00;;;16.80;40.90;;;;;;5047226;28;20049;-80
2022/05/11 05:10:16;;;;;;;4.28;2.08;;;16.90;40.70;;;;;;5042484;28;20975;-81
2022/05/11 05:12:43;;;;;;;5.97;2.35;;;16.90;40.60;;;;;;5045145;28;20383;-81
2022/05/11 05:15:13;;;;;;;4.70;2.42;;;16.90;40.70;;;;;;5046870;28;20074;-80
2022/05/11 05:17:39;;;;;;;7.03;2.90;;;17.00;40.80;;;;;;5046028;28;20029;-82
2022/05/11 05:20:07;;;;;;;4.93;2.50;;;17.00;40.90;;;;;;5043897;28;20040;-82
2022/05/11 05:22:34;;;;;;;9.90;2.80;;;17.00;40.50;;;;;;5044927;28;20378;-83
2022/05/11 05:25:01;;;;;;;5.90;3.38;;;17.10;41.30;;;;;;5044765;28;20046;-84
2022/05/11 05:27:27;;;;;;;7.65;2.78;;;17.10;41.50;;;;;;5044156;28;20037;-85
2022/05/11 05:32:41;;;;;;;5.93;2.42;;;17.20;41.40;;;;;;5045640;28;20041;-84
2022/05/11 05:35:15;;;;;;;5.30;2.40;;;17.30;41.40;;;;;;5011655;28;20037;-84
2022/05/11 05:37:40;;;;;;;5.93;2.40;;;17.30;41.40;;;;;;5047123;28;20380;-85
2022/05/11 05:40:08;;;;;;;5.18;2.53;;;17.40;41.20;;;;;;5025599;28;20090;-84
2022/05/11 05:42:33;;;;;;;6.28;2.63;;;17.40;41.60;;;;;;5043625;28;20063;-83
2022/05/11 05:44:59;;;;;;;6.18;1.83;;;17.50;41.30;;;;;;5044894;28;20474;-84
2022/05/11 05:47:25;;;;;;;41.85;5.20;;;17.50;41.20;;;;;;5044750;28;20033;-84
2022/05/11 05:49:51;;;;;;;15.38;2.90;;;17.60;41.00;;;;;;5043534;28;20114;-83
2022/05/11 05:52:23;;;;;;;6.63;1.70;;;17.60;40.90;;;;;;5046210;28;20083;-83
2022/05/11 05:54:50;;;;;;;10.40;1.90;;;17.70;40.40;;;;;;5044551;28;20036;-84
2022/05/11 05:57:17;;;;;;;3.03;1.73;;;17.70;40.00;;;;;;5045320;28;20047;-83
2022/05/11 05:59:45;;;;;;;9.13;1.50;;;17.80;40.20;;;;;;5042740;28;20041;-84
2022/05/11 06:02:16;;;;;;;3.67;1.10;;;17.90;40.00;;;;;;5059826;28;20041;-84
2022/05/11 06:04:47;;;;;;;5.97;0.90;;;18.00;39.50;;;;;;5060479;28;20033;-84
2022/05/11 06:07:14;;;;;;;4.97;1.27;;;18.10;38.70;;;;;;5044848;28;20075;-87
2022/05/11 06:09:40;;;;;;;6.43;1.48;;;18.10;39.40;;;;;;5027560;28;20068;-82
2022/05/11 06:12:08;;;;;;;12.20;1.80;;;18.20;40.10;;;;;;5043082;28;20029;-82
2022/05/11 06:14:35;;;;;;;3.75;1.20;;;18.30;41.70;;;;;;5046250;28;20029;-81
2022/05/11 06:17:01;;;;;;;4.00;1.08;;;18.40;42.30;;;;;;5044476;28;20049;-80
2022/05/11 06:19:29;;;;;;;9.75;1.63;;;18.60;41.20;;;;;;5045136;28;20151;-80
2022/05/11 06:21:55;;;;;;;3.20;1.00;;;18.70;40.20;;;;;;5046352;28;20345;-80
2022/05/11 06:24:22;;;;;;;3.10;0.80;;;18.70;38.90;;;;;;5045077;28;20131;-81
2022/05/11 06:26:48;;;;;;;2.78;1.00;;;18.80;38.50;;;;;;5043534;28;20043;-81
2022/05/11 06:29:14;;;;;;;4.25;2.45;;;18.80;37.50;;;;;;5045087;28;20029;-81
2022/05/11 06:31:40;;;;;;;4.70;2.33;;;18.90;37.80;;;;;;5044067;28;20048;-81
2022/05/11 06:34:07;;;;;;;5.65;2.05;;;18.90;37.60;;;;;;5044541;28;20043;-80
2022/05/11 06:36:33;;;;;;;4.35;1.95;;;19.00;38.00;;;;;;5044664;28;20483;-81
2022/05/11 06:38:59;;;;;;;3.40;1.80;;;19.00;38.40;;;;;;5043980;28;20040;-80
2022/05/11 06:41:28;;;;;;;5.03;1.58;;;19.00;38.00;;;;;;5043322;28;20030;-79
2022/05/11 06:43:54;;;;;;;4.40;1.05;;;19.10;38.20;;;;;;5045157;28;20076;-81
2022/05/11 06:46:21;;;;;;;3.63;1.08;;;19.20;38.00;;;;;;5042755;28;20028;-81
2022/05/11 06:48:48;;;;;;;2.75;1.20;;;19.20;37.30;;;;;;5044922;28;20518;-82
2022/05/11 06:51:16;;;;;;;1.88;1.02;;;19.10;36.80;;;;;;5044793;28;20044;-81
2022/05/11 06:59:35;;;;;;;1.42;1.08;;;19.10;36.90;;;;;;4998386;28;20076;-79
2022/05/11 07:02:05;;;;;;;2.22;1.10;;;19.20;37.20;;;;;;4997861;28;20045;-79
2022/05/11 07:04:33;;;;;;;9.45;1.45;;;19.20;37.10;;;;;;4996433;28;20077;-79
2022/05/11 07:07:00;;;;;;;3.88;0.90;;;19.20;37.60;;;;;;4996575;28;20038;-79
2022/05/11 07:09:31;;;;;;;4.57;1.50;;;19.20;37.80;;;;;;4996590;28;20110;-79
2022/05/11 07:14:47;;;;;;;2.40;1.08;;;19.20;37.60;;;;;;4996775;28;20034;-80
2022/05/11 07:17:24;;;;;;;3.40;1.33;;;19.20;37.40;;;;;;4997164;28;20113;-80
2022/05/11 07:19:50;;;;;;;2.38;1.30;;;19.20;37.30;;;;;;4996561;28;20116;-81
2022/05/11 07:22:15;;;;;;;4.25;1.27;;;19.20;37.20;;;;;;4999986;28;20057;-80
2022/05/11 07:24:43;;;;;;;2.78;1.10;;;19.20;37.10;;;;;;4980907;28;20037;-79
2022/05/11 07:27:09;;;;;;;4.53;1.13;;;19.20;37.10;;;;;;5001131;28;20073;-81
2022/05/11 07:29:36;;;;;;;3.65;1.30;;;19.20;37.50;;;;;;5005648;28;20116;-79
2022/05/11 07:32:02;;;;;;;1.52;0.90;;;19.20;37.70;;;;;;5046265;28;20037;-80
2022/05/11 07:34:29;;;;;;;3.67;1.00;;;19.20;37.10;;;;;;5046149;28;20191;-78
2022/05/11 07:36:55;;;;;;;5.20;1.17;;;19.20;36.70;;;;;;5046992;28;20033;-80
2022/05/11 07:39:23;;;;;;;5.00;0.93;;;19.20;37.10;;;;;;5045825;28;20103;-80
2022/05/11 07:41:49;;;;;;;5.13;1.10;;;19.10;37.00;;;;;;5046503;28;20389;-80
2022/05/11 07:44:16;;;;;;;3.28;1.15;;;19.20;37.20;;;;;;5047648;28;20647;-81
2022/05/11 07:46:44;;;;;;;4.05;1.15;;;19.20;37.20;;;;;;5048249;28;20119;-79
2022/05/11 07:49:11;;;;;;;2.22;1.30;;;19.20;37.20;;;;;;5063445;28;20044;-80
2022/05/11 07:51:37;;;;;;;3.13;1.20;;;19.20;36.90;;;;;;5045016;28;20048;-80
2022/05/11 07:54:04;;;;;;;5.88;1.00;;;19.20;36.40;;;;;;5044941;28;20072;-79
2022/05/11 08:02:00;;;;;;;4.97;1.15;;;19.30;37.00;;;;;;5038728;28;20040;-81
2022/05/11 08:04:26;;;;;;;5.00;1.55;;;19.30;36.70;;;;;;5045828;28;20095;-76
2022/05/11 08:06:52;;;;;;;26.55;3.00;;;19.30;37.40;;;;;;5057743;28;20040;-77
2022/05/11 08:09:18;;;;;;;8.07;1.90;;;19.30;39.00;;;;;;5034624;28;20033;-81
2022/05/11 08:11:45;;;;;;;16.80;2.50;;;19.40;39.70;;;;;;5050287;28;20067;-78
2022/05/11 08:14:14;;;;;;;13.07;3.35;;;19.50;39.20;;;;;;5051112;28;20127;-77
2022/05/11 08:16:40;;;;;;;13.95;3.63;;;19.70;39.30;;;;;;5051075;28;20029;-79
2022/05/11 08:19:07;;;;;;;28.20;3.75;;;19.90;39.30;;;;;;5049142;28;20468;-81
2022/05/11 08:21:36;;;;;;;21.65;4.28;;;19.90;39.00;;;;;;5050581;28;20412;-78
2022/05/11 08:24:02;;;;;;;20.50;3.60;;;20.10;39.00;;;;;;5051307;28;20029;-78
2022/05/11 08:26:28;;;;;;;15.25;3.47;;;20.20;38.60;;;;;;5052814;28;20044;-79
2022/05/11 08:28:54;;;;;;;14.43;3.53;;;20.30;38.80;;;;;;5052165;28;20040;-79
2022/05/11 08:34:05;;;;;;;15.73;3.05;;;20.50;39.70;;;;;;5046754;28;20029;-79
2022/05/11 08:36:31;;;;;;;11.88;2.90;;;20.50;39.50;;;;;;5052584;28;20041;-79
2022/05/11 08:38:59;;;;;;;14.60;2.67;;;20.60;39.50;;;;;;5051957;28;20083;-79
2022/05/11 08:41:45;;;;;;;9.73;2.55;;;20.70;39.10;;;;;;5046607;28;20029;-80
2022/05/11 08:44:15;;;;;;;22.63;3.03;;;20.80;38.80;;;;;;5049581;28;20117;-86
2022/05/11 08:46:49;;;;;;;12.82;2.55;;;20.80;38.60;;;;;;5049546;28;20071;-84
2022/05/11 08:49:33;;;;;;;11.10;2.08;;;20.80;38.40;;;;;;5051168;28;20051;-86
2022/05/11 08:52:04;;;;;;;12.25;2.53;;;20.80;37.80;;;;;;5050287;28;20040;-88
2022/05/11 08:54:31;;;;;;;10.40;2.33;;;20.90;37.60;;;;;;5029595;28;20037;-87
2022/05/11 08:56:57;;;;;;;7.13;2.33;;;20.90;37.60;;;;;;5028434;28;20090;-87
2022/05/11 08:59:28;;;;;;;13.38;2.58;;;20.90;37.80;;;;;;5065582;28;20045;-88
2022/05/11 09:02:19;;;;;;;8.95;2.38;;;21.00;38.00;;;;;;5050387;28;20167;-82
2022/05/11 09:04:53;;;;;;;7.15;2.22;;;21.00;38.40;;;;;;5037423;28;20033;-82
2022/05/11 09:07:19;;;;;;;8.02;2.38;;;21.00;36.90;;;;;;5049692;28;20249;-78
2022/05/11 09:09:46;;;;;;;4.55;1.70;;;20.90;36.10;;;;;;5050295;28;20068;-81
2022/05/11 09:12:13;;;;;;;4.88;2.22;;;20.90;35.80;;;;;;5050285;28;20037;-82
2022/05/11 09:14:42;;;;;;;6.50;2.00;;;20.90;36.00;;;;;;5049653;28;20028;-82
2022/05/11 09:17:26;;;;;;;8.25;2.67;;;20.90;36.40;;;;;;5050039;28;20045;-80
2022/05/11 09:20:06;;;;;;;7.00;2.30;;;20.90;36.80;;;;;;5050341;28;20049;-80
2022/05/11 09:22:34;;;;;;;12.43;2.33;;;20.90;37.40;;;;;;5050765;28;20680;-82
2022/05/11 09:25:24;;;;;;;9.27;2.70;;;20.90;37.70;;;;;;5051158;28;20037;-80
2022/05/11 09:27:52;;;;;;;9.77;3.30;;;20.90;37.50;;;;;;5051194;28;20045;-79
2022/05/11 09:30:23;;;;;;;12.05;2.33;;;20.90;37.30;;;;;;5050212;28;20515;-80
2022/05/11 09:32:53;;;;;;;9.43;2.13;;;20.90;36.70;;;;;;5045810;28;20056;-78
2022/05/11 09:35:23;;;;;;;4.63;2.40;;;20.90;35.70;;;;;;5047367;28;20456;-80
2022/05/11 09:38:19;;;;;;;9.80;2.28;;;20.90;35.80;;;;;;5048488;28;20037;-79
2022/05/11 09:41:03;;;;;;;;;;;20.90;35.60;;;;;;5045138;28;20428;-80
2022/05/11 09:43:50;;;;;;;5.35;2.78;;;20.90;36.30;;;;;;5045796;28;19913;-80
2022/05/11 09:46:36;;;;;;;13.63;3.83;;;20.90;37.10;;;;;;5049690;28;20029;-80
2022/05/11 09:49:13;;;;;;;7.65;3.30;;;20.90;37.50;;;;;;5048528;28;20091;-79
2022/05/11 09:51:39;;;;;;;9.23;3.20;;;20.90;36.90;;;;;;5049390;28;20040;-79
2022/05/11 09:54:24;;;;;;;7.53;3.00;;;20.90;36.80;;;;;;5049740;28;20033;-79
2022/05/11 09:56:49;;;;;;;8.50;3.30;;;20.90;36.50;;;;;;5049968;28;20037;-78
2022/05/11 09:59:31;;;;;;;9.90;4.00;;;20.90;36.50;;;;;;5048982;28;20053;-78
2022/05/11 10:02:25;;;;;;;9.15;4.05;;;20.90;37.10;;;;;;5048789;28;20041;-79
2022/05/11 10:05:11;;;;;;;7.47;3.28;;;20.90;36.70;;;;;;5044453;28;20029;-79
2022/05/11 10:07:39;;;;;;;;;;;20.90;36.00;;;;;;5048740;28;20039;-78
2022/05/11 10:10:12;;;;;;;6.93;3.00;;;20.90;36.20;;;;;;5050039;28;19909;-77
2022/05/11 10:12:41;;;;;;;4.93;2.47;;;20.90;36.10;;;;;;5047925;28;20402;-78
2022/05/11 10:24:02;;;;;;;;;;;20.90;35.60;;;;;;5047843;28;20604;-80
2022/05/11 10:26:39;;;;;;;7.22;3.45;;;20.90;35.70;;;;;;5046260;28;20003;-80
2022/05/11 10:29:22;;;;;;;4.43;3.10;;;20.80;36.00;;;;;;5047192;28;20106;-80
2022/05/11 10:32:14;;;;;;;7.63;3.10;;;20.90;35.80;;;;;;5050038;28;20040;-78
2022/05/11 10:35:18;;;;;;;6.35;3.35;;;20.90;36.40;;;;;;5046971;28;20499;-78
2022/05/11 10:38:06;;;;;;;6.68;3.75;;;21.00;36.60;;;;;;5046863;28;20522;-79
2022/05/11 10:40:59;;;;;;;8.25;3.63;;;21.00;36.80;;;;;;5050925;28;20045;-81
2022/05/11 10:43:51;;;;;;;8.95;4.15;;;21.00;37.50;;;;;;5042435;28;20064;-79
2022/05/11 10:46:29;;;;;;;7.43;3.45;;;21.00;37.30;;;;;;5060909;28;20033;-82
2022/05/11 10:48:58;;;;;;;6.13;3.40;;;21.10;36.60;;;;;;5064244;28;20419;-79
2022/05/11 10:52:04;;;;;;;7.57;3.97;;;21.00;36.30;;;;;;5013882;28;20039;-78
2022/05/11 10:55:30;;;;;;;8.27;3.58;;;21.00;37.20;;;;;;5049377;28;20439;-78
2022/05/11 10:58:39;;;;;;;5.95;4.43;;;21.10;37.60;;;;;;5005885;28;20044;-76
2022/05/11 11:01:18;;;;;;;8.00;3.70;;;21.10;39.10;;;;;;5038128;28;20056;-76
2022/05/11 11:04:37;;;;;;;8.82;4.03;;;21.10;38.70;;;;;;5052933;28;20521;-78
2022/05/11 11:07:44;;;;;;;8.55;4.72;;;21.20;39.10;;;;;;5049875;28;20087;-78
2022/05/11 11:10:54;;;;;;;8.43;4.65;;;21.20;39.60;;;;;;5025131;28;20107;-75
2022/05/11 11:14:00;;;;;;;6.05;2.63;;;21.20;39.50;;;;;;5026468;28;20128;-85
2022/05/11 11:17:28;;;;;;;;;;;;;;;;;;;;;
2022/05/11 11:20:23;;;;;;;6.32;2.22;;;21.20;38.60;;;;;;5002190;28;20061;-89
2022/05/11 11:23:32;;;;;;;7.70;2.78;;;21.30;38.60;;;;;;5009878;28;20036;-89
2022/05/11 11:26:13;;;;;;;5.10;2.22;;;21.30;38.10;;;;;;4984450;28;20041;-90
2022/05/11 11:28:45;;;;;;;5.35;2.08;;;21.40;38.50;;;;;;4997220;28;20040;-86
2022/05/11 11:35:16;;;;;;;;;;;21.70;37.70;;;;;;5052995;28;20406;-79
2022/05/11 11:38:12;;;;;;;;;;;;;;;;;;;;;
2022/05/11 11:41:17;;;;;;;3.97;1.80;;;22.00;38.70;;;;;;4997520;28;20148;-78
2022/05/11 11:44:26;;;;;;;4.68;1.90;;;22.00;38.90;;;;;;5006136;28;20152;-78
2022/05/11 11:46:59;;;;;;;4.20;1.80;;;22.00;39.10;;;;;;4985055;28;20500;-78
2022/05/11 11:49:35;;;;;;;3.95;1.85;;;21.90;39.10;;;;;;4991093;28;20136;-77
2022/05/11 11:52:39;;;;;;;3.40;1.85;;;21.90;39.20;;;;;;5008394;28;20145;-78
2022/05/11 11:55:18;;;;;;;5.32;1.95;;;21.90;39.30;;;;;;4989780;28;20061;-77
2022/05/11 11:57:48;;;;;;;6.00;1.80;;;21.80;38.80;;;;;;5008768;28;20042;-77
2022/05/11 12:00:30;;;;;;;5.20;2.25;;;21.80;38.30;;;;;;4989240;28;20393;-76
2022/05/11 12:03:23;;;;;;;4.80;2.08;;;21.80;37.80;;;;;;4965250;28;20062;-77
2022/05/11 12:20:47;;;;;;;6.80;1.92;;;21.70;37.30;;;;;;5005496;28;20034;-76
2022/05/11 12:23:26;;;;;;;5.25;1.75;;;21.60;37.00;;;;;;4961318;28;20069;-76
2022/05/11 12:26:59;;;;;;;;;;;;;;;;;;;;;
2022/05/11 12:30:43;;;;;;;2.92;1.67;;;21.60;35.60;;;;;;4946430;28;20540;-77
2022/05/11 12:33:34;;;;;;;6.47;1.80;;;21.60;36.30;;;;;;4916050;29;20597;-77
2022/05/11 12:36:35;;;;;;;4.72;1.50;;;21.60;36.00;;;;;;4921977;29;20053;-77
2022/05/11 12:39:08;;;;;;;6.22;1.50;;;21.60;35.80;;;;;;4930330;29;20494;-77
2022/05/11 12:41:45;;;;;;;79.25;8.13;;;21.60;35.00;;;;;;4931410;29;20687;-77
2022/05/11 12:44:25;;;;;;;;;;;;;;;;;;;;;
2022/05/11 12:46:56;;;;;;;37.80;6.28;;;21.50;35.00;;;;;;4932889;29;20455;-77
2022/05/11 12:49:34;;;;;;;32.50;5.30;;;21.50;35.50;;;;;;4932053;29;20147;-77
2022/05/11 12:52:07;;;;;;;21.13;3.58;;;21.60;36.40;;;;;;4917501;29;20044;-76
2022/05/11 12:54:38;;;;;;;11.45;2.53;;;21.50;36.50;;;;;;4906033;29;20048;-77
2022/05/11 12:57:39;;;;;;;5.20;1.85;;;21.50;36.70;;;;;;4908701;29;20474;-77
2022/05/11 13:00:18;;;;;;;2.70;1.48;;;21.50;36.30;;;;;;4917342;29;20522;-78
2022/05/11 13:02:51;;;;;;;28.15;4.03;;;21.50;34.90;;;;;;4917537;29;20566;-77
2022/05/11 13:05:23;;;;;;;6.15;2.00;;;21.50;34.70;;;;;;4940385;29;20075;-77
2022/05/11 13:08:07;;;;;;;29.73;5.45;;;21.50;34.70;;;;;;4936920;28;20073;-78
2022/05/11 13:10:43;;;;;;;13.07;2.88;;;21.50;35.00;;;;;;4949341;28;20497;-79
2022/05/11 13:13:42;;;;;;;14.93;3.00;;;21.50;34.70;;;;;;4962506;28;20051;-78
2022/05/11 13:19:36;;;;;;;4.72;1.77;;;21.50;35.70;;;;;;4973601;28;20074;-79
2022/05/11 13:22:29;;;;;;;7.53;1.85;;;21.40;34.70;;;;;;4957898;28;20409;-78
2022/05/11 13:25:12;;;;;;;4.47;1.60;;;21.40;34.90;;;;;;4988764;28;20129;-83
2022/05/11 13:31:11;;;;;;;;;;;21.00;48.30;;;;;;5049493;27;19931;-85
2022/05/11 13:33:42;;;;;;;;;;;20.50;48.10;;;;;;5030547;28;19917;-83
2022/05/11 13:43:37;;;;;;;;;;;19.90;48.30;;;;;;4979584;28;20044;-82
2022/05/11 13:46:24;;;;;;;;;;;19.80;46.00;;;;;;4969859;28;20008;-82
2022/05/11 13:52:52;;;;;;;;;;;19.60;47.50;;;;;;4979363;28;19941;-82
2022/05/11 13:59:22;;;;;;;;;;;19.60;48.80;;;;;;4874744;29;19953;-81
2022/05/11 14:02:15;;;;;;;;;;;19.60;49.30;;;;;;4894573;29;20442;-83
2022/05/11 14:04:46;;;;;;;;;;;19.60;49.60;;;;;;4879990;29;19998;-83
2022/05/11 14:07:49;;;;;;;;;;;19.60;50.20;;;;;;4888169;29;19912;-83
2022/05/11 14:11:01;;;;;;;;;;;19.60;50.20;;;;;;4875558;29;19922;-82
2022/05/11 14:17:29;;;;;;;;;;;19.70;48.40;;;;;;4871620;29;19920;-84
2022/05/11 14:20:43;;;;;;;;;;;;;;;;;;;;;
2022/05/11 14:27:37;;;;;;;;;;;19.70;47.90;;;;;;4898858;29;19919;-86
2022/05/11 14:30:07;;;;;;;;;;;19.70;48.40;;;;;;4867380;29;19970;-90
2022/05/11 14:32:40;;;;;;;;;;;19.80;48.20;;;;;;4878828;29;19931;-89
2022/05/11 14:35:11;;;;;;;;;;;19.70;47.80;;;;;;4929667;29;19925;-86
2022/05/11 14:40:59;;;;;;;;;;;19.80;48.20;;;;;;4918353;29;20429;-86
2022/05/11 14:43:34;;;;;;;;;;;19.80;47.30;;;;;;4910712;29;19915;-84
2022/05/11 14:46:05;;;;;;;;;;;19.80;47.70;;;;;;4913919;29;20018;-86
2022/05/11 14:48:34;;;;;;;;;;;19.80;48.10;;;;;;4881760;29;19930;-87
2022/05/11 14:51:01;;;;;;;;;;;19.80;48.30;;;;;;4896092;29;20005;-88
2022/05/11 14:53:27;;;;;;;;;;;19.80;48.90;;;;;;4883423;28;19930;-89
2022/05/11 14:56:06;;;;;;;;;;;19.80;48.20;;;;;;4921905;28;19929;-88